Provider — WX6821 — position and weather

sailwx.info

Track history (hours):
 
Tides and Currents Weather Stations Pressure Air Temp Water Temp Dewpoint Dewpoint Depression Visibility Wind Speed Wind Dir Waves Ship Positions

Provider

Owner: WESTAR MARINE SERVICES, SAN FRANCISCO, CA. More information available from US FCC via Universal Licensing System and Coast Guard Vessel Documentation Center.

Last reported at 2017-Nov-12 14:29 UTC. Time now 2018-Jun-18 15:43 UTC.
Position N 37°46' W 122°23'.
Warning: this ship's position is months out of date.

Date/timePositionNaut miles runAvg speedWind from/ knotsBaromVisibWave heightAir tempDewpointWater temp
2017-Nov-12 14:29N 37°46' W 122°23'0 0.0
2017-Nov-12 11:58N 37°46' W 122°23'0 0.0
2017-Nov-12 11:31N 37°46' W 122°23'0 0.0
2017-Nov-12 11:01N 37°46' W 122°23'0 0.0
2017-Nov-12 10:31N 37°46' W 122°23'3 5.4
2017-Nov-12 10:00N 37°48' W 122°21'3 5.0
2017-Nov-12 09:31N 37°46' W 122°22'1 1.2
2017-Nov-12 09:01N 37°46' W 122°23'3 6.2
2017-Nov-12 08:31N 37°44' W 122°21'3 0.3
2017-Nov-11 20:28N 37°46' W 122°23'2 4.8
2017-Nov-11 20:01N 37°44' W 122°22'2 0.7
2017-Nov-11 16:45N 37°46' W 122°23'0 0.0
2017-Nov-11 16:30N 37°46' W 122°23'4 8.4
2017-Nov-11 16:00N 37°51' W 122°24'4 7.5
2017-Nov-11 15:30N 37°54' W 122°22'1 1.9
2017-Nov-11 15:00N 37°55' W 122°22'0 0.9
2017-Nov-11 14:31N 37°55' W 122°22'1 1.1
2017-Nov-11 14:00N 37°55' W 122°22'3 5.4
2017-Nov-11 13:30N 37°53' W 122°24'612.7
2017-Nov-11 13:00N 37°46' W 122°23'0 0.0
2017-Nov-11 12:30N 37°46' W 122°23'0 0.1
2017-Nov-11 12:01N 37°47' W 122°23'2 3.6
2017-Nov-11 11:31N 37°46' W 122°21'3 6.1
2017-Nov-11 11:00N 37°48' W 122°24'3 6.5
2017-Nov-11 10:31N 37°49' W 122°28'3 6.4
2017-Nov-11 10:00N 37°48' W 122°24'2 3.4
2017-Nov-11 09:30N 37°46' W 122°23'0 0.0
2017-Nov-11 09:00N 37°46' W 122°23'4 8.4
2017-Nov-11 08:31N 37°49' W 122°27'4 8.4
2017-Nov-11 08:00N 37°46' W 122°23'0 0.0
2017-Nov-11 04:37N 37°46' W 122°23'0 1.0
2017-Nov-11 04:31N 37°47' W 122°23'0 0.2
2017-Nov-11 04:00N 37°46' W 122°23'0 0.0
2017-Nov-11 02:59N 37°46' W 122°23'0 0.2
2017-Nov-11 02:30N 37°46' W 122°23'0 0.2
2017-Nov-11 02:00N 37°46' W 122°23'0 0.0
2017-Nov-10 21:13N 37°46' W 122°23'0 1.1
2017-Nov-10 21:00N 37°47' W 122°23'1 2.2
2017-Nov-10 20:30N 37°47' W 122°22'4 7.3
2017-Nov-10 20:01N 37°44' W 122°20'3 6.2
2017-Nov-10 19:29N 37°46' W 122°23'0 0.0
2017-Nov-10 18:59N 37°46' W 122°23'0 0.7
2017-Nov-10 18:30N 37°47' W 122°23'0 0.4
2017-Nov-10 18:00N 37°47' W 122°23'1 1.1
2017-Nov-10 17:31N 37°46' W 122°23'0 0.0
2017-Nov-10 17:01N 37°46' W 122°23'0 0.0
2017-Nov-10 16:30N 37°46' W 122°23'0 0.0
2017-Nov-10 16:01N 37°46' W 122°23'4 7.1
2017-Nov-10 15:30N 37°44' W 122°20'5 9.8
2017-Nov-10 15:00N 37°49' W 122°22'2 4.8
2017-Nov-10 14:30N 37°46' W 122°23'0 0.0
2017-Nov-10 11:36N 37°46' W 122°23'1 6.5
2017-Nov-10 11:30N 37°46' W 122°22'4 8.3
2017-Nov-10 11:01N 37°49' W 122°19'2 4.9
2017-Nov-10 10:30N 37°48' W 122°22'4 8.5
2017-Nov-10 10:01N 37°44' W 122°21'3 5.9
2017-Nov-10 09:31N 37°46' W 122°23'0 0.0
2017-Nov-10 09:00N 37°46' W 122°23'4 7.4
2017-Nov-10 08:31N 37°44' W 122°20'0 0.1
2017-Nov-10 08:00N 37°44' W 122°20'4 7.2
2017-Nov-10 07:30N 37°46' W 122°23'0 0.0
2017-Nov-10 07:01N 37°46' W 122°23'1 2.1
2017-Nov-10 06:30N 37°46' W 122°22'1 2.1
2017-Nov-10 06:00N 37°46' W 122°23'0 0.0
2017-Nov-10 05:30N 37°46' W 122°23'0 0.0
2017-Nov-10 05:00N 37°46' W 122°23'0 0.0
2017-Nov-10 04:30N 37°46' W 122°23'1 2.9
2017-Nov-10 04:01N 37°46' W 122°22'2 4.4
2017-Nov-10 03:31N 37°48' W 122°21'2 4.7
2017-Nov-10 03:00N 37°49' W 122°19'2 3.8
2017-Nov-10 02:31N 37°48' W 122°18'4 8.2
2017-Nov-10 02:00N 37°46' W 122°23'0 0.0
2017-Nov-09 14:17N 37°46' W 122°23'0 0.0
2017-Nov-09 14:00N 37°46' W 122°23'0 0.0
2017-Nov-09 13:30N 37°46' W 122°23'0 0.0
2017-Nov-09 07:00N 37°46' W 122°23'0 0.0
2017-Nov-09 06:30N 37°46' W 122°23'0 0.2
2017-Nov-09 06:00N 37°46' W 122°23'0 0.0
2017-Nov-09 00:08N 37°46' W 122°23'0 0.0
2017-Nov-09 00:00N 37°46' W 122°23'0 0.0
2017-Nov-08 23:29N 37°46' W 122°23'0 0.0
2017-Nov-08 22:58N 37°46' W 122°23'0 0.0
2017-Nov-08 22:29N 37°46' W 122°23'0 0.0
2017-Nov-08 22:00N 37°46' W 122°23'0 0.0
2017-Nov-08 21:30N 37°46' W 122°23'0 0.0
2017-Nov-08 21:00N 37°46' W 122°23'1 1.2
2017-Nov-08 20:30N 37°46' W 122°22'1 2.4
2017-Nov-08 20:00N 37°46' W 122°21'0 0.1
2017-Nov-08 19:30N 37°46' W 122°21'2 3.4
2017-Nov-08 19:00N 37°46' W 122°23'0 0.0
2017-Nov-08 18:30N 37°46' W 122°23'1 1.7
2017-Nov-08 18:00N 37°46' W 122°22'2 4.6
2017-Nov-08 17:30N 37°48' W 122°21'4 8.7
2017-Nov-08 17:01N 37°49' W 122°26'2 4.4
2017-Nov-08 16:30N 37°48' W 122°24'2 3.7
2017-Nov-08 16:00N 37°46' W 122°23'1 2.2
2017-Nov-08 15:30N 37°48' W 122°23'1 2.3
2017-Nov-08 15:00N 37°48' W 122°24'0 0.0
2017-Nov-08 14:30N 37°48' W 122°24'0 0.3
2017-Nov-08 14:00N 37°48' W 122°24'0 0.5
2017-Nov-08 13:30N 37°48' W 122°24'2 4.4
2017-Nov-08 13:00N 37°47' W 122°22'3 6.9
2017-Nov-08 12:30N 37°49' W 122°25'1 2.8
2017-Nov-08 12:00N 37°48' W 122°24'2 3.7
2017-Nov-08 11:30N 37°46' W 122°23'0 0.0
2017-Nov-08 11:01N 37°46' W 122°23'0 0.0
2017-Nov-08 10:30N 37°46' W 122°23'0 0.3
2017-Nov-08 10:00N 37°46' W 122°23'0 0.3
2017-Nov-08 09:29N 37°46' W 122°23'0 0.0
2017-Nov-08 09:01N 37°46' W 122°23'0 0.0
2017-Nov-08 08:31N 37°46' W 122°23'0 0.0
2017-Nov-08 08:01N 37°46' W 122°23'0 0.1
2017-Nov-08 07:31N 37°46' W 122°23'0 0.0
2017-Nov-08 07:01N 37°46' W 122°23'0 0.3
2017-Nov-08 06:31N 37°46' W 122°23'0 0.4
2017-Nov-08 06:01N 37°46' W 122°23'0 0.0
2017-Nov-08 05:30N 37°46' W 122°23'0 0.0
2017-Nov-08 05:01N 37°46' W 122°23'0 0.0
2017-Nov-08 04:30N 37°46' W 122°23'0 0.2
2017-Nov-08 04:00N 37°46' W 122°23'0 0.2
2017-Nov-08 03:30N 37°46' W 122°23'0 0.1
2017-Nov-08 03:01N 37°46' W 122°23'0 0.0
2017-Nov-08 02:31N 37°46' W 122°23'2 3.1
2017-Nov-08 02:00N 37°46' W 122°21'0 0.0
2017-Nov-08 01:31N 37°46' W 122°21'0 0.0
2017-Nov-08 01:00N 37°46' W 122°21'0 0.0
2017-Nov-08 00:30N 37°46' W 122°21'2 3.1
2017-Nov-08 00:00N 37°46' W 122°23'0 0.0
2017-Nov-07 23:30N 37°46' W 122°23'0 0.0
2017-Nov-07 23:00N 37°46' W 122°23'2 3.4
2017-Nov-07 22:30N 37°48' W 122°23'1 2.3
2017-Nov-07 22:00N 37°49' W 122°25'0 0.0
2017-Nov-07 21:30N 37°49' W 122°25'0 0.0
2017-Nov-07 21:00N 37°49' W 122°25'0 0.0
2017-Nov-07 20:30N 37°49' W 122°25'0 0.0
2017-Nov-07 20:00N 37°49' W 122°25'0 0.0
2017-Nov-07 19:30N 37°49' W 122°25'0 0.0
2017-Nov-07 19:00N 37°49' W 122°25'1 2.8
2017-Nov-07 18:30N 37°48' W 122°23'4 7.2
2017-Nov-07 18:00N 37°45' W 122°21'2 4.7
2017-Nov-07 17:30N 37°46' W 122°23'4 8.1
2017-Nov-07 17:00N 37°49' W 122°19'0 0.4
2017-Nov-07 16:30N 37°49' W 122°19'0 0.0
2017-Nov-07 16:00N 37°49' W 122°19'4 8.2
2017-Nov-07 15:30N 37°46' W 122°23'0 0.1
2017-Nov-07 15:01N 37°46' W 122°23'0 0.0
2017-Nov-07 14:30N 37°46' W 122°23'0 0.0
2017-Nov-07 14:00N 37°46' W 122°23'0 0.0
2017-Nov-07 13:31N 37°46' W 122°23'0 0.0
2017-Nov-07 13:00N 37°46' W 122°23'0 0.0
2017-Nov-07 12:30N 37°46' W 122°23'0 0.0
2017-Nov-07 12:00N 37°46' W 122°23'0 0.0
2017-Nov-07 11:31N 37°46' W 122°23'0 0.0
2017-Nov-07 11:00N 37°46' W 122°23'1 2.9
2017-Nov-07 10:30N 37°47' W 122°21'1 0.4
2017-Nov-07 06:49N 37°46' W 122°23'2 5.7
2017-Nov-07 06:30N 37°45' W 122°21'2 3.5
2017-Nov-07 06:00N 37°46' W 122°23'0 0.0
2017-Nov-07 05:30N 37°46' W 122°23'0 0.0
2017-Nov-07 05:00N 37°46' W 122°23'0 0.0
2017-Nov-07 04:30N 37°46' W 122°23'0 0.0
2017-Nov-07 04:00N 37°46' W 122°23'0 0.0
2017-Nov-07 03:30N 37°46' W 122°23'0 0.0
2017-Nov-07 03:00N 37°46' W 122°23'0 0.0
2017-Nov-07 02:30N 37°46' W 122°23'0 0.0
2017-Nov-07 02:00N 37°46' W 122°23'0 0.0
2017-Nov-07 01:30N 37°46' W 122°23'0 0.0
2017-Nov-07 01:00N 37°46' W 122°23'0 0.0
2017-Nov-07 00:31N 37°46' W 122°23'0 0.0
2017-Nov-07 00:00N 37°46' W 122°23'0 0.0
2017-Nov-06 23:30N 37°46' W 122°23'0 0.3
2017-Nov-06 23:01N 37°46' W 122°23'0 0.3
2017-Nov-06 22:30N 37°46' W 122°23'0 0.0
2017-Nov-06 22:00N 37°46' W 122°23'2 4.1
2017-Nov-06 21:30N 37°48' W 122°22'5 9.6
2017-Nov-06 21:00N 37°44' W 122°20'611.6
2017-Nov-06 20:30N 37°49' W 122°19'4 0.2
2017-Nov-06 02:30N 37°46' W 122°23'0 0.0
2017-Nov-06 02:00N 37°46' W 122°23'0 0.0
2017-Nov-06 01:30N 37°46' W 122°23'0 0.1
2017-Nov-06 01:01N 37°46' W 122°23'0 0.0
2017-Nov-06 00:30N 37°46' W 122°23'0 0.0
2017-Nov-06 00:01N 37°46' W 122°23'0 0.1
2017-Nov-05 23:31N 37°46' W 122°23'0 0.0
2017-Nov-05 23:01N 37°46' W 122°23'0 0.0
2017-Nov-05 22:31N 37°46' W 122°23'0 0.0
2017-Nov-05 22:00N 37°46' W 122°23'0 0.0
2017-Nov-05 21:30N 37°46' W 122°23'0 0.0
2017-Nov-05 21:01N 37°46' W 122°23'3 6.6
2017-Nov-05 20:31N 37°49' W 122°20'3 5.5
2017-Nov-05 20:01N 37°46' W 122°21'3 5.0
2017-Nov-05 19:30N 37°49' W 122°20'1 2.6
2017-Nov-05 19:00N 37°47' W 122°21'2 3.9
2017-Nov-05 18:30N 37°45' W 122°21'2 3.6
2017-Nov-05 18:00N 37°46' W 122°23'0 0.0
2017-Nov-05 17:30N 37°46' W 122°23'0 0.0
2017-Nov-05 17:00N 37°46' W 122°23'0 0.1
2017-Nov-05 16:30N 37°46' W 122°23'0 0.0
2017-Nov-05 12:42N 37°46' W 122°23'0 0.0
2017-Nov-05 12:30N 37°46' W 122°23'5 9.3
2017-Nov-05 12:00N 37°51' W 122°24'4 8.6
2017-Nov-05 11:31N 37°55' W 122°25'3 5.9
2017-Nov-05 11:00N 37°52' W 122°24'611.9
2017-Nov-05 10:31N 37°46' W 122°23'0 0.0
2017-Nov-05 10:00N 37°46' W 122°23'0 0.0
2017-Nov-05 09:30N 37°46' W 122°23'0 0.0
2017-Nov-05 09:00N 37°46' W 122°23'0 0.0
2017-Nov-05 08:31N 37°46' W 122°23'0 0.0
2017-Nov-05 08:00N 37°46' W 122°23'2 3.5
2017-Nov-05 07:30N 37°48' W 122°21'2 3.1
2017-Nov-05 07:01N 37°46' W 122°20'0 0.6
2017-Nov-05 06:30N 37°46' W 122°20'2 3.6
2017-Nov-05 06:00N 37°48' W 122°21'2 3.7
2017-Nov-05 05:30N 37°46' W 122°23'0 0.0
2017-Nov-05 05:00N 37°46' W 122°23'0 0.0
2017-Nov-05 04:30N 37°46' W 122°23'0 0.0
2017-Nov-05 04:00N 37°46' W 122°23'2 3.6
2017-Nov-05 03:30N 37°45' W 122°21'1 1.4
2017-Nov-05 03:00N 37°45' W 122°21'5 9.2
2017-Nov-05 02:30N 37°49' W 122°19'1 2.8
2017-Nov-05 02:00N 37°48' W 122°21'3 5.0
2017-Nov-05 01:30N 37°46' W 122°23'0 0.0
2017-Nov-04 23:53N 37°46' W 122°23'0 0.0
2017-Nov-04 23:30N 37°46' W 122°23'0 0.0
2017-Nov-04 23:00N 37°46' W 122°23'0 0.0
2017-Nov-04 22:30N 37°46' W 122°23'0 0.0
2017-Nov-04 22:00N 37°46' W 122°23'0 0.0
2017-Nov-04 21:30N 37°46' W 122°23'0 0.0
2017-Nov-04 21:00N 37°46' W 122°23'2 3.1
2017-Nov-04 20:30N 37°45' W 122°22'1 2.4
2017-Nov-04 20:00N 37°45' W 122°20'2 4.2
2017-Nov-04 19:30N 37°46' W 122°22'2 4.8
2017-Nov-04 19:00N 37°45' W 122°20'3 6.1
2017-Nov-04 18:30N 37°46' W 122°23'1 1.1
2017-Nov-04 18:01N 37°46' W 122°23'2 3.2
2017-Nov-04 17:31N 37°45' W 122°21'0 0.0
2017-Nov-04 17:00N 37°45' W 122°21'0 0.1
2017-Nov-04 16:30N 37°45' W 122°21'0 0.0
2017-Nov-04 16:01N 37°45' W 122°21'0 0.3
2017-Nov-04 15:30N 37°45' W 122°21'2 4.2
2017-Nov-04 15:00N 37°46' W 122°23'0 0.0
2017-Nov-04 14:30N 37°46' W 122°23'0 0.0
2017-Nov-04 14:00N 37°46' W 122°23'0 0.0
2017-Nov-04 13:30N 37°46' W 122°23'0 0.0
2017-Nov-04 09:01N 37°46' W 122°23'0 0.6
2017-Nov-04 09:01N 37°46' W 122°23'0 0.0
2017-Nov-04 08:30N 37°46' W 122°23'0 0.0
2017-Nov-04 05:29N 37°46' W 122°23'0 0.1
2017-Nov-04 05:00N 37°47' W 122°23'0 0.2
2017-Nov-04 04:31N 37°46' W 122°23'0 0.0
2017-Nov-04 04:00N 37°46' W 122°23'4 7.4
2017-Nov-04 03:30N 37°44' W 122°20'0 0.1
2017-Nov-04 03:01N 37°44' W 122°20'1 2.9
2017-Nov-04 02:31N 37°45' W 122°21'2 4.5
2017-Nov-04 02:00N 37°46' W 122°23'0 0.0
2017-Nov-04 01:30N 37°46' W 122°23'0 0.0
2017-Nov-04 01:00N 37°46' W 122°23'0 0.0
2017-Nov-04 00:30N 37°46' W 122°23'3 6.3
2017-Nov-04 00:01N 37°49' W 122°25'3 5.5
2017-Nov-03 23:30N 37°47' W 122°23'1 1.2
2017-Nov-03 23:00N 37°46' W 122°23'3 5.2
2017-Nov-03 22:31N 37°49' W 122°23'510.5
2017-Nov-03 22:00N 37°54' W 122°23'1 2.3
2017-Nov-03 21:31N 37°55' W 122°22'0 0.1
2017-Nov-03 21:00N 37°55' W 122°22'0 0.1
2017-Nov-03 20:30N 37°55' W 122°22'0 0.7
2017-Nov-03 19:59N 37°55' W 122°22'1 2.8
2017-Nov-03 19:31N 37°54' W 122°24'612.1
2017-Nov-03 19:00N 37°48' W 122°23'2 3.6
2017-Nov-03 18:30N 37°46' W 122°23'0 0.0
2017-Nov-03 18:00N 37°46' W 122°23'0 0.3
2017-Nov-03 17:30N 37°46' W 122°23'0 0.3
2017-Nov-03 17:00N 37°46' W 122°23'4 8.2
2017-Nov-03 16:30N 37°49' W 122°19'611.0
2017-Nov-03 16:00N 37°44' W 122°20'0 0.2
2017-Nov-03 15:30N 37°44' W 122°20'4 8.2
2017-Nov-03 15:00N 37°47' W 122°21'3 5.1
2017-Nov-03 14:30N 37°49' W 122°19'5 9.5
2017-Nov-03 14:00N 37°46' W 122°23'1 2.1
2017-Nov-03 13:31N 37°46' W 122°23'0 0.0
2017-Nov-03 13:00N 37°46' W 122°23'0 0.0
2017-Nov-03 08:23N 37°46' W 122°23'0 0.0
2017-Nov-03 08:00N 37°46' W 122°23'0 0.0
2017-Nov-03 07:31N 37°46' W 122°23'0 0.0
2017-Nov-03 02:56N 37°46' W 122°23'0 0.1
2017-Nov-03 02:30N 37°46' W 122°23'0 0.1
2017-Nov-03 02:00N 37°46' W 122°23'0 0.0
2017-Nov-03 00:41N 37°46' W 122°23'0 0.0
2017-Nov-03 00:30N 37°46' W 122°23'3 5.9
2017-Nov-03 00:00N 37°45' W 122°20'0 0.1
2017-Nov-02 23:30N 37°45' W 122°20'3 6.0
2017-Nov-02 23:00N 37°46' W 122°23'0 0.0
2017-Nov-02 22:30N 37°46' W 122°23'4 7.6
2017-Nov-02 22:00N 37°49' W 122°19'4 8.9
2017-Nov-02 21:31N 37°45' W 122°20'0 0.1
2017-Nov-02 21:01N 37°44' W 122°20'4 8.8
2017-Nov-02 20:31N 37°49' W 122°20'3 6.8
2017-Nov-02 20:00N 37°47' W 122°23'0 0.4
2017-Nov-02 19:30N 37°46' W 122°23'0 0.0
2017-Nov-02 19:00N 37°46' W 122°23'0 0.0
2017-Nov-02 18:30N 37°46' W 122°23'0 0.0
2017-Nov-02 18:00N 37°46' W 122°23'0 0.0
2017-Nov-02 17:30N 37°46' W 122°23'0 0.0
2017-Nov-02 17:00N 37°46' W 122°23'2 4.1
2017-Nov-02 16:30N 37°46' W 122°21'713.3
2017-Nov-02 16:00N 37°52' W 122°24'2 4.3
2017-Nov-02 15:30N 37°54' W 122°23'1 2.2
2017-Nov-02 14:59N 37°55' W 122°22'1 1.4
2017-Nov-02 14:30N 37°55' W 122°22'  
Track history (hours):
 
Tides and Currents Weather Stations Pressure Air Temp Water Temp Dewpoint Dewpoint Depression Visibility Wind Speed Wind Dir Waves Ship Positions

Provider

Owner: WESTAR MARINE SERVICES, SAN FRANCISCO, CA. More information available from US FCC via Universal Licensing System and Coast Guard Vessel Documentation Center.

Last reported at 2017-Nov-12 14:29 UTC. Time now 2018-Jun-18 15:43 UTC.
Position N 37°46' W 122°23'.
Warning: this ship's position is months out of date.

Date/timePositionNaut miles runAvg speedWind from/ knotsBaromVisibWave heightAir tempDewpointWater temp
2017-Nov-12 14:29N 37°46' W 122°23'0 0.0
2017-Nov-12 11:58N 37°46' W 122°23'0 0.0
2017-Nov-12 11:31N 37°46' W 122°23'0 0.0
2017-Nov-12 11:01N 37°46' W 122°23'0 0.0
2017-Nov-12 10:31N 37°46' W 122°23'3 5.4
2017-Nov-12 10:00N 37°48' W 122°21'3 5.0
2017-Nov-12 09:31N 37°46' W 122°22'1 1.2
2017-Nov-12 09:01N 37°46' W 122°23'3 6.2
2017-Nov-12 08:31N 37°44' W 122°21'3 0.3
2017-Nov-11 20:28N 37°46' W 122°23'2 4.8
2017-Nov-11 20:01N 37°44' W 122°22'2 0.7
2017-Nov-11 16:45N 37°46' W 122°23'0 0.0
2017-Nov-11 16:30N 37°46' W 122°23'4 8.4
2017-Nov-11 16:00N 37°51' W 122°24'4 7.5
2017-Nov-11 15:30N 37°54' W 122°22'1 1.9
2017-Nov-11 15:00N 37°55' W 122°22'0 0.9
2017-Nov-11 14:31N 37°55' W 122°22'1 1.1
2017-Nov-11 14:00N 37°55' W 122°22'3 5.4
2017-Nov-11 13:30N 37°53' W 122°24'612.7
2017-Nov-11 13:00N 37°46' W 122°23'0 0.0
2017-Nov-11 12:30N 37°46' W 122°23'0 0.1
2017-Nov-11 12:01N 37°47' W 122°23'2 3.6
2017-Nov-11 11:31N 37°46' W 122°21'3 6.1
2017-Nov-11 11:00N 37°48' W 122°24'3 6.5
2017-Nov-11 10:31N 37°49' W 122°28'3 6.4
2017-Nov-11 10:00N 37°48' W 122°24'2 3.4
2017-Nov-11 09:30N 37°46' W 122°23'0 0.0
2017-Nov-11 09:00N 37°46' W 122°23'4 8.4
2017-Nov-11 08:31N 37°49' W 122°27'4 8.4
2017-Nov-11 08:00N 37°46' W 122°23'0 0.0
2017-Nov-11 04:37N 37°46' W 122°23'0 1.0
2017-Nov-11 04:31N 37°47' W 122°23'0 0.2
2017-Nov-11 04:00N 37°46' W 122°23'0 0.0
2017-Nov-11 02:59N 37°46' W 122°23'0 0.2
2017-Nov-11 02:30N 37°46' W 122°23'0 0.2
2017-Nov-11 02:00N 37°46' W 122°23'0 0.0
2017-Nov-10 21:13N 37°46' W 122°23'0 1.1
2017-Nov-10 21:00N 37°47' W 122°23'1 2.2
2017-Nov-10 20:30N 37°47' W 122°22'4 7.3
2017-Nov-10 20:01N 37°44' W 122°20'3 6.2
2017-Nov-10 19:29N 37°46' W 122°23'0 0.0
2017-Nov-10 18:59N 37°46' W 122°23'0 0.7
2017-Nov-10 18:30N 37°47' W 122°23'0 0.4
2017-Nov-10 18:00N 37°47' W 122°23'1 1.1
2017-Nov-10 17:31N 37°46' W 122°23'0 0.0
2017-Nov-10 17:01N 37°46' W 122°23'0 0.0
2017-Nov-10 16:30N 37°46' W 122°23'0 0.0
2017-Nov-10 16:01N 37°46' W 122°23'4 7.1
2017-Nov-10 15:30N 37°44' W 122°20'5 9.8
2017-Nov-10 15:00N 37°49' W 122°22'2 4.8
2017-Nov-10 14:30N 37°46' W 122°23'0 0.0
2017-Nov-10 11:36N 37°46' W 122°23'1 6.5
2017-Nov-10 11:30N 37°46' W 122°22'4 8.3
2017-Nov-10 11:01N 37°49' W 122°19'2 4.9
2017-Nov-10 10:30N 37°48' W 122°22'4 8.5
2017-Nov-10 10:01N 37°44' W 122°21'3 5.9
2017-Nov-10 09:31N 37°46' W 122°23'0 0.0
2017-Nov-10 09:00N 37°46' W 122°23'4 7.4
2017-Nov-10 08:31N 37°44' W 122°20'0 0.1
2017-Nov-10 08:00N 37°44' W 122°20'4 7.2
2017-Nov-10 07:30N 37°46' W 122°23'0 0.0
2017-Nov-10 07:01N 37°46' W 122°23'1 2.1
2017-Nov-10 06:30N 37°46' W 122°22'1 2.1
2017-Nov-10 06:00N 37°46' W 122°23'0 0.0
2017-Nov-10 05:30N 37°46' W 122°23'0 0.0
2017-Nov-10 05:00N 37°46' W 122°23'0 0.0
2017-Nov-10 04:30N 37°46' W 122°23'1 2.9
2017-Nov-10 04:01N 37°46' W 122°22'2 4.4
2017-Nov-10 03:31N 37°48' W 122°21'2 4.7
2017-Nov-10 03:00N 37°49' W 122°19'2 3.8
2017-Nov-10 02:31N 37°48' W 122°18'4 8.2
2017-Nov-10 02:00N 37°46' W 122°23'0 0.0
2017-Nov-09 14:17N 37°46' W 122°23'0 0.0
2017-Nov-09 14:00N 37°46' W 122°23'0 0.0
2017-Nov-09 13:30N 37°46' W 122°23'0 0.0
2017-Nov-09 07:00N 37°46' W 122°23'0 0.0
2017-Nov-09 06:30N 37°46' W 122°23'0 0.2
2017-Nov-09 06:00N 37°46' W 122°23'0 0.0
2017-Nov-09 00:08N 37°46' W 122°23'0 0.0
2017-Nov-09 00:00N 37°46' W 122°23'0 0.0
2017-Nov-08 23:29N 37°46' W 122°23'0 0.0
2017-Nov-08 22:58N 37°46' W 122°23'0 0.0
2017-Nov-08 22:29N 37°46' W 122°23'0 0.0
2017-Nov-08 22:00N 37°46' W 122°23'0 0.0
2017-Nov-08 21:30N 37°46' W 122°23'0 0.0
2017-Nov-08 21:00N 37°46' W 122°23'1 1.2
2017-Nov-08 20:30N 37°46' W 122°22'1 2.4
2017-Nov-08 20:00N 37°46' W 122°21'0 0.1
2017-Nov-08 19:30N 37°46' W 122°21'2 3.4
2017-Nov-08 19:00N 37°46' W 122°23'0 0.0
2017-Nov-08 18:30N 37°46' W 122°23'1 1.7
2017-Nov-08 18:00N 37°46' W 122°22'2 4.6
2017-Nov-08 17:30N 37°48' W 122°21'4 8.7
2017-Nov-08 17:01N 37°49' W 122°26'2 4.4
2017-Nov-08 16:30N 37°48' W 122°24'2 3.7
2017-Nov-08 16:00N 37°46' W 122°23'1 2.2
2017-Nov-08 15:30N 37°48' W 122°23'1 2.3
2017-Nov-08 15:00N 37°48' W 122°24'0 0.0
2017-Nov-08 14:30N 37°48' W 122°24'0 0.3
2017-Nov-08 14:00N 37°48' W 122°24'0 0.5
2017-Nov-08 13:30N 37°48' W 122°24'2 4.4
2017-Nov-08 13:00N 37°47' W 122°22'3 6.9
2017-Nov-08 12:30N 37°49' W 122°25'1 2.8
2017-Nov-08 12:00N 37°48' W 122°24'2 3.7
2017-Nov-08 11:30N 37°46' W 122°23'0 0.0
2017-Nov-08 11:01N 37°46' W 122°23'0 0.0
2017-Nov-08 10:30N 37°46' W 122°23'0 0.3
2017-Nov-08 10:00N 37°46' W 122°23'0 0.3
2017-Nov-08 09:29N 37°46' W 122°23'0 0.0
2017-Nov-08 09:01N 37°46' W 122°23'0 0.0
2017-Nov-08 08:31N 37°46' W 122°23'0 0.0
2017-Nov-08 08:01N 37°46' W 122°23'0 0.1
2017-Nov-08 07:31N 37°46' W 122°23'0 0.0
2017-Nov-08 07:01N 37°46' W 122°23'0 0.3
2017-Nov-08 06:31N 37°46' W 122°23'0 0.4
2017-Nov-08 06:01N 37°46' W 122°23'0 0.0
2017-Nov-08 05:30N 37°46' W 122°23'0 0.0
2017-Nov-08 05:01N 37°46' W 122°23'0 0.0
2017-Nov-08 04:30N 37°46' W 122°23'0 0.2
2017-Nov-08 04:00N 37°46' W 122°23'0 0.2
2017-Nov-08 03:30N 37°46' W 122°23'0 0.1
2017-Nov-08 03:01N 37°46' W 122°23'0 0.0
2017-Nov-08 02:31N 37°46' W 122°23'2 3.1
2017-Nov-08 02:00N 37°46' W 122°21'0 0.0
2017-Nov-08 01:31N 37°46' W 122°21'0 0.0
2017-Nov-08 01:00N 37°46' W 122°21'0 0.0
2017-Nov-08 00:30N 37°46' W 122°21'2 3.1
2017-Nov-08 00:00N 37°46' W 122°23'0 0.0
2017-Nov-07 23:30N 37°46' W 122°23'0 0.0
2017-Nov-07 23:00N 37°46' W 122°23'2 3.4
2017-Nov-07 22:30N 37°48' W 122°23'1 2.3
2017-Nov-07 22:00N 37°49' W 122°25'0 0.0
2017-Nov-07 21:30N 37°49' W 122°25'0 0.0
2017-Nov-07 21:00N 37°49' W 122°25'0 0.0
2017-Nov-07 20:30N 37°49' W 122°25'0 0.0
2017-Nov-07 20:00N 37°49' W 122°25'0 0.0
2017-Nov-07 19:30N 37°49' W 122°25'0 0.0
2017-Nov-07 19:00N 37°49' W 122°25'1 2.8
2017-Nov-07 18:30N 37°48' W 122°23'4 7.2
2017-Nov-07 18:00N 37°45' W 122°21'2 4.7
2017-Nov-07 17:30N 37°46' W 122°23'4 8.1
2017-Nov-07 17:00N 37°49' W 122°19'0 0.4
2017-Nov-07 16:30N 37°49' W 122°19'0 0.0
2017-Nov-07 16:00N 37°49' W 122°19'4 8.2
2017-Nov-07 15:30N 37°46' W 122°23'0 0.1
2017-Nov-07 15:01N 37°46' W 122°23'0 0.0
2017-Nov-07 14:30N 37°46' W 122°23'0 0.0
2017-Nov-07 14:00N 37°46' W 122°23'0 0.0
2017-Nov-07 13:31N 37°46' W 122°23'0 0.0
2017-Nov-07 13:00N 37°46' W 122°23'0 0.0
2017-Nov-07 12:30N 37°46' W 122°23'0 0.0
2017-Nov-07 12:00N 37°46' W 122°23'0 0.0
2017-Nov-07 11:31N 37°46' W 122°23'0 0.0
2017-Nov-07 11:00N 37°46' W 122°23'1 2.9
2017-Nov-07 10:30N 37°47' W 122°21'1 0.4
2017-Nov-07 06:49N 37°46' W 122°23'2 5.7
2017-Nov-07 06:30N 37°45' W 122°21'2 3.5
2017-Nov-07 06:00N 37°46' W 122°23'0 0.0
2017-Nov-07 05:30N 37°46' W 122°23'0 0.0
2017-Nov-07 05:00N 37°46' W 122°23'0 0.0
2017-Nov-07 04:30N 37°46' W 122°23'0 0.0
2017-Nov-07 04:00N 37°46' W 122°23'0 0.0
2017-Nov-07 03:30N 37°46' W 122°23'0 0.0
2017-Nov-07 03:00N 37°46' W 122°23'0 0.0
2017-Nov-07 02:30N 37°46' W 122°23'0 0.0
2017-Nov-07 02:00N 37°46' W 122°23'0 0.0
2017-Nov-07 01:30N 37°46' W 122°23'0 0.0
2017-Nov-07 01:00N 37°46' W 122°23'0 0.0
2017-Nov-07 00:31N 37°46' W 122°23'0 0.0
2017-Nov-07 00:00N 37°46' W 122°23'0 0.0
2017-Nov-06 23:30N 37°46' W 122°23'0 0.3
2017-Nov-06 23:01N 37°46' W 122°23'0 0.3
2017-Nov-06 22:30N 37°46' W 122°23'0 0.0
2017-Nov-06 22:00N 37°46' W 122°23'2 4.1
2017-Nov-06 21:30N 37°48' W 122°22'5 9.6
2017-Nov-06 21:00N 37°44' W 122°20'611.6
2017-Nov-06 20:30N 37°49' W 122°19'4 0.2
2017-Nov-06 02:30N 37°46' W 122°23'0 0.0
2017-Nov-06 02:00N 37°46' W 122°23'0 0.0
2017-Nov-06 01:30N 37°46' W 122°23'0 0.1
2017-Nov-06 01:01N 37°46' W 122°23'0 0.0
2017-Nov-06 00:30N 37°46' W 122°23'0 0.0
2017-Nov-06 00:01N 37°46' W 122°23'0 0.1
2017-Nov-05 23:31N 37°46' W 122°23'0 0.0
2017-Nov-05 23:01N 37°46' W 122°23'0 0.0
2017-Nov-05 22:31N 37°46' W 122°23'0 0.0
2017-Nov-05 22:00N 37°46' W 122°23'0 0.0
2017-Nov-05 21:30N 37°46' W 122°23'0 0.0
2017-Nov-05 21:01N 37°46' W 122°23'3 6.6
2017-Nov-05 20:31N 37°49' W 122°20'3 5.5
2017-Nov-05 20:01N 37°46' W 122°21'3 5.0
2017-Nov-05 19:30N 37°49' W 122°20'1 2.6
2017-Nov-05 19:00N 37°47' W 122°21'2 3.9
2017-Nov-05 18:30N 37°45' W 122°21'2 3.6
2017-Nov-05 18:00N 37°46' W 122°23'0 0.0
2017-Nov-05 17:30N 37°46' W 122°23'0 0.0
2017-Nov-05 17:00N 37°46' W 122°23'0 0.1
2017-Nov-05 16:30N 37°46' W 122°23'0 0.0
2017-Nov-05 12:42N 37°46' W 122°23'0 0.0
2017-Nov-05 12:30N 37°46' W 122°23'5 9.3
2017-Nov-05 12:00N 37°51' W 122°24'4 8.6
2017-Nov-05 11:31N 37°55' W 122°25'3 5.9
2017-Nov-05 11:00N 37°52' W 122°24'611.9
2017-Nov-05 10:31N 37°46' W 122°23'0 0.0
2017-Nov-05 10:00N 37°46' W 122°23'0 0.0
2017-Nov-05 09:30N 37°46' W 122°23'0 0.0
2017-Nov-05 09:00N 37°46' W 122°23'0 0.0
2017-Nov-05 08:31N 37°46' W 122°23'0 0.0
2017-Nov-05 08:00N 37°46' W 122°23'2 3.5
2017-Nov-05 07:30N 37°48' W 122°21'2 3.1
2017-Nov-05 07:01N 37°46' W 122°20'0 0.6
2017-Nov-05 06:30N 37°46' W 122°20'2 3.6
2017-Nov-05 06:00N 37°48' W 122°21'2 3.7
2017-Nov-05 05:30N 37°46' W 122°23'0 0.0
2017-Nov-05 05:00N 37°46' W 122°23'0 0.0
2017-Nov-05 04:30N 37°46' W 122°23'0 0.0
2017-Nov-05 04:00N 37°46' W 122°23'2 3.6
2017-Nov-05 03:30N 37°45' W 122°21'1 1.4
2017-Nov-05 03:00N 37°45' W 122°21'5 9.2
2017-Nov-05 02:30N 37°49' W 122°19'1 2.8
2017-Nov-05 02:00N 37°48' W 122°21'3 5.0
2017-Nov-05 01:30N 37°46' W 122°23'0 0.0
2017-Nov-04 23:53N 37°46' W 122°23'0 0.0
2017-Nov-04 23:30N 37°46' W 122°23'0 0.0
2017-Nov-04 23:00N 37°46' W 122°23'0 0.0
2017-Nov-04 22:30N 37°46' W 122°23'0 0.0
2017-Nov-04 22:00N 37°46' W 122°23'0 0.0
2017-Nov-04 21:30N 37°46' W 122°23'0 0.0
2017-Nov-04 21:00N 37°46' W 122°23'2 3.1
2017-Nov-04 20:30N 37°45' W 122°22'1 2.4
2017-Nov-04 20:00N 37°45' W 122°20'2 4.2
2017-Nov-04 19:30N 37°46' W 122°22'2 4.8
2017-Nov-04 19:00N 37°45' W 122°20'3 6.1
2017-Nov-04 18:30N 37°46' W 122°23'1 1.1
2017-Nov-04 18:01N 37°46' W 122°23'2 3.2
2017-Nov-04 17:31N 37°45' W 122°21'0 0.0
2017-Nov-04 17:00N 37°45' W 122°21'0 0.1
2017-Nov-04 16:30N 37°45' W 122°21'0 0.0
2017-Nov-04 16:01N 37°45' W 122°21'0 0.3
2017-Nov-04 15:30N 37°45' W 122°21'2 4.2
2017-Nov-04 15:00N 37°46' W 122°23'0 0.0
2017-Nov-04 14:30N 37°46' W 122°23'0 0.0
2017-Nov-04 14:00N 37°46' W 122°23'0 0.0
2017-Nov-04 13:30N 37°46' W 122°23'0 0.0
2017-Nov-04 09:01N 37°46' W 122°23'0 0.6
2017-Nov-04 09:01N 37°46' W 122°23'0 0.0
2017-Nov-04 08:30N 37°46' W 122°23'0 0.0
2017-Nov-04 05:29N 37°46' W 122°23'0 0.1
2017-Nov-04 05:00N 37°47' W 122°23'0 0.2
2017-Nov-04 04:31N 37°46' W 122°23'0 0.0
2017-Nov-04 04:00N 37°46' W 122°23'4 7.4
2017-Nov-04 03:30N 37°44' W 122°20'0 0.1
2017-Nov-04 03:01N 37°44' W 122°20'1 2.9
2017-Nov-04 02:31N 37°45' W 122°21'2 4.5
2017-Nov-04 02:00N 37°46' W 122°23'0 0.0
2017-Nov-04 01:30N 37°46' W 122°23'0 0.0
2017-Nov-04 01:00N 37°46' W 122°23'0 0.0
2017-Nov-04 00:30N 37°46' W 122°23'3 6.3
2017-Nov-04 00:01N 37°49' W 122°25'3 5.5
2017-Nov-03 23:30N 37°47' W 122°23'1 1.2
2017-Nov-03 23:00N 37°46' W 122°23'3 5.2
2017-Nov-03 22:31N 37°49' W 122°23'510.5
2017-Nov-03 22:00N 37°54' W 122°23'1 2.3
2017-Nov-03 21:31N 37°55' W 122°22'0 0.1
2017-Nov-03 21:00N 37°55' W 122°22'0 0.1
2017-Nov-03 20:30N 37°55' W 122°22'0 0.7
2017-Nov-03 19:59N 37°55' W 122°22'1 2.8
2017-Nov-03 19:31N 37°54' W 122°24'612.1
2017-Nov-03 19:00N 37°48' W 122°23'2 3.6
2017-Nov-03 18:30N 37°46' W 122°23'0 0.0
2017-Nov-03 18:00N 37°46' W 122°23'0 0.3
2017-Nov-03 17:30N 37°46' W 122°23'0 0.3
2017-Nov-03 17:00N 37°46' W 122°23'4 8.2
2017-Nov-03 16:30N 37°49' W 122°19'611.0
2017-Nov-03 16:00N 37°44' W 122°20'0 0.2
2017-Nov-03 15:30N 37°44' W 122°20'4 8.2
2017-Nov-03 15:00N 37°47' W 122°21'3 5.1
2017-Nov-03 14:30N 37°49' W 122°19'5 9.5
2017-Nov-03 14:00N 37°46' W 122°23'1 2.1
2017-Nov-03 13:31N 37°46' W 122°23'0 0.0
2017-Nov-03 13:00N 37°46' W 122°23'0 0.0
2017-Nov-03 08:23N 37°46' W 122°23'0 0.0
2017-Nov-03 08:00N 37°46' W 122°23'0 0.0
2017-Nov-03 07:31N 37°46' W 122°23'0 0.0
2017-Nov-03 02:56N 37°46' W 122°23'0 0.1
2017-Nov-03 02:30N 37°46' W 122°23'0 0.1
2017-Nov-03 02:00N 37°46' W 122°23'0 0.0
2017-Nov-03 00:41N 37°46' W 122°23'0 0.0
2017-Nov-03 00:30N 37°46' W 122°23'3 5.9
2017-Nov-03 00:00N 37°45' W 122°20'0 0.1
2017-Nov-02 23:30N 37°45' W 122°20'3 6.0
2017-Nov-02 23:00N 37°46' W 122°23'0 0.0
2017-Nov-02 22:30N 37°46' W 122°23'4 7.6
2017-Nov-02 22:00N 37°49' W 122°19'4 8.9
2017-Nov-02 21:31N 37°45' W 122°20'0 0.1
2017-Nov-02 21:01N 37°44' W 122°20'4 8.8
2017-Nov-02 20:31N 37°49' W 122°20'3 6.8
2017-Nov-02 20:00N 37°47' W 122°23'0 0.4
2017-Nov-02 19:30N 37°46' W 122°23'0 0.0
2017-Nov-02 19:00N 37°46' W 122°23'0 0.0
2017-Nov-02 18:30N 37°46' W 122°23'0 0.0
2017-Nov-02 18:00N 37°46' W 122°23'0 0.0
2017-Nov-02 17:30N 37°46' W 122°23'0 0.0
2017-Nov-02 17:00N 37°46' W 122°23'2 4.1
2017-Nov-02 16:30N 37°46' W 122°21'713.3
2017-Nov-02 16:00N 37°52' W 122°24'2 4.3
2017-Nov-02 15:30N 37°54' W 122°23'1 2.2
2017-Nov-02 14:59N 37°55' W 122°22'1 1.4
2017-Nov-02 14:30N 37°55' W 122°22'  

Dump ship's entire track history